Time;durP1;ratioP1;P1;durP2;ratioP2;P2;SDS_P1;SDS_P2;PMS_P1;PMS_P2;Temp;Humidity;BMP_temperature;BMP_pressure;BME280_temperature;BME280_humidity;BME280_pressure;Samples;Min_cycle;Max_cycle;Signal;HPM_P1;HPM_P2
2024/01/25 00:01:29;;;;;;;107.22;72.85;;;5.40;99.90;;;;;;5033761;28;20489;-65
2024/01/25 00:03:55;;;;;;;97.40;66.93;;;5.50;99.90;;;;;;5033564;28;20045;-62
2024/01/25 00:06:21;;;;;;;95.82;66.90;;;5.60;99.90;;;;;;5033710;28;20022;-67
2024/01/25 00:08:47;;;;;;;90.45;62.75;;;5.60;99.90;;;;;;5032409;28;20040;-63
2024/01/25 00:11:13;;;;;;;80.25;57.00;;;5.60;99.90;;;;;;5033457;28;20049;-65
2024/01/25 00:13:38;;;;;;;86.00;57.58;;;5.60;99.90;;;;;;5033560;28;20387;-64
2024/01/25 00:16:04;;;;;;;95.30;65.10;;;5.70;99.90;;;;;;5033413;28;20021;-66
2024/01/25 00:18:30;;;;;;;100.60;70.47;;;5.70;99.90;;;;;;5033417;28;20569;-65
2024/01/25 00:20:56;;;;;;;97.47;67.57;;;5.70;99.90;;;;;;5032659;28;20065;-63
2024/01/25 00:23:22;;;;;;;91.13;64.00;;;5.70;99.90;;;;;;5033348;28;20025;-66
2024/01/25 00:25:47;;;;;;;105.88;70.22;;;5.80;99.90;;;;;;5033192;28;20480;-64
2024/01/25 00:28:13;;;;;;;142.77;98.22;;;5.80;99.90;;;;;;5033223;28;20029;-66
2024/01/25 00:30:39;;;;;;;121.38;84.50;;;5.70;99.90;;;;;;5033296;28;20021;-66
2024/01/25 00:33:05;;;;;;;148.77;100.20;;;5.70;99.90;;;;;;5033391;28;20021;-63
2024/01/25 00:35:31;;;;;;;138.18;93.70;;;5.70;99.90;;;;;;5033294;28;20025;-63
2024/01/25 00:37:57;;;;;;;114.35;79.40;;;5.70;99.90;;;;;;5033164;28;20040;-63
2024/01/25 00:40:23;;;;;;;116.75;81.60;;;5.60;99.90;;;;;;5033072;28;20092;-67
2024/01/25 00:42:53;;;;;;;93.97;66.50;;;5.70;99.90;;;;;;5033271;28;20075;-65
2024/01/25 00:45:23;;;;;;;91.93;63.50;;;5.80;99.90;;;;;;5031826;28;20074;-66
2024/01/25 00:47:50;;;;;;;91.43;61.17;;;5.80;99.90;;;;;;5033288;28;20021;-63
2024/01/25 00:50:17;;;;;;;80.65;57.97;;;5.90;99.90;;;;;;5033142;28;20102;-66
2024/01/25 00:52:44;;;;;;;73.75;51.88;;;5.80;99.90;;;;;;5048345;28;20043;-65
2024/01/25 00:55:10;;;;;;;67.95;49.45;;;5.80;99.90;;;;;;5033012;28;20057;-65
2024/01/25 00:57:36;;;;;;;72.22;50.33;;;5.90;99.90;;;;;;5033110;28;20395;-66
2024/01/25 01:00:04;;;;;;;71.22;49.90;;;5.90;99.90;;;;;;5033019;28;20022;-64
2024/01/25 01:02:35;;;;;;;60.35;43.75;;;5.90;99.90;;;;;;5033033;28;20033;-67
2024/01/25 01:05:00;;;;;;;71.80;51.08;;;5.90;99.90;;;;;;5032930;28;20113;-66
2024/01/25 01:07:27;;;;;;;59.47;43.90;;;5.80;99.90;;;;;;5032928;28;20041;-63
2024/01/25 01:09:53;;;;;;;68.38;50.22;;;5.70;99.90;;;;;;5032872;28;20484;-66
2024/01/25 01:12:18;;;;;;;55.70;41.67;;;5.80;99.90;;;;;;5032911;28;20052;-66
2024/01/25 01:14:44;;;;;;;57.78;42.53;;;5.80;99.90;;;;;;5032867;28;20038;-65
2024/01/25 01:17:10;;;;;;;56.10;41.10;;;5.80;99.90;;;;;;5032842;28;20041;-65
2024/01/25 01:19:35;;;;;;;57.42;42.10;;;5.90;99.90;;;;;;5032823;28;20439;-66
2024/01/25 01:22:01;;;;;;;50.03;38.42;;;6.00;99.90;;;;;;5032793;28;20028;-64
2024/01/25 01:24:27;;;;;;;47.58;36.03;;;6.00;99.90;;;;;;5032760;28;20022;-66
2024/01/25 01:26:53;;;;;;;54.78;39.55;;;6.10;99.90;;;;;;5032843;28;20026;-63
2024/01/25 01:29:18;;;;;;;48.67;36.80;;;6.10;99.90;;;;;;5032815;28;20029;-65
2024/01/25 01:31:44;;;;;;;42.45;33.17;;;6.10;99.90;;;;;;5032717;28;20510;-64
2024/01/25 01:34:10;;;;;;;48.92;35.05;;;6.10;99.90;;;;;;5036272;28;20096;-64
2024/01/25 01:36:35;;;;;;;52.03;38.28;;;6.10;99.90;;;;;;5036465;28;20545;-64
2024/01/25 01:39:01;;;;;;;44.72;35.22;;;6.10;99.90;;;;;;5036187;28;20610;-66
2024/01/25 01:41:27;;;;;;;48.03;36.65;;;6.10;99.90;;;;;;5036488;28;20025;-66
2024/01/25 01:43:53;;;;;;;55.65;41.50;;;6.10;99.90;;;;;;5036468;28;20022;-65
2024/01/25 01:46:37;;;;;;;44.28;33.25;;;6.10;99.90;;;;;;5036255;28;20053;-66
2024/01/25 01:49:04;;;;;;;45.72;34.55;;;6.10;99.90;;;;;;5036352;28;20155;-66
2024/01/25 01:51:31;;;;;;;40.42;31.70;;;6.10;99.90;;;;;;5036173;28;20025;-64
2024/01/25 01:53:59;;;;;;;40.60;31.17;;;6.20;99.90;;;;;;5035971;28;20427;-66
2024/01/25 01:56:27;;;;;;;39.00;29.25;;;6.20;99.90;;;;;;5036248;28;20093;-64
2024/01/25 01:58:53;;;;;;;40.17;31.15;;;6.30;99.90;;;;;;5036060;28;20476;-65
2024/01/25 02:01:20;;;;;;;36.05;28.33;;;6.20;99.90;;;;;;5051335;28;20029;-65
2024/01/25 02:03:46;;;;;;;39.17;29.15;;;6.20;99.90;;;;;;5036012;28;20118;-67
2024/01/25 02:06:12;;;;;;;38.70;28.50;;;6.20;99.90;;;;;;5035822;28;20025;-63
2024/01/25 02:08:38;;;;;;;33.35;26.17;;;6.20;99.90;;;;;;5035786;28;20388;-66
2024/01/25 02:11:04;;;;;;;33.65;25.27;;;6.20;99.90;;;;;;5034614;28;20053;-63
2024/01/25 02:13:30;;;;;;;36.70;27.00;;;6.20;99.90;;;;;;5035688;28;20021;-66
2024/01/25 02:15:56;;;;;;;40.88;30.40;;;6.20;99.90;;;;;;5034406;28;20031;-67
2024/01/25 02:18:22;;;;;;;34.75;26.25;;;6.20;99.90;;;;;;5035619;28;20033;-65
2024/01/25 02:20:48;;;;;;;29.38;22.58;;;6.20;99.90;;;;;;5035656;28;20021;-64
2024/01/25 02:23:14;;;;;;;39.45;30.75;;;6.20;99.90;;;;;;5035340;28;20028;-64
2024/01/25 02:25:39;;;;;;;34.47;26.77;;;6.20;99.90;;;;;;5035673;28;20475;-64
2024/01/25 02:28:05;;;;;;;30.77;24.20;;;6.10;99.90;;;;;;5035579;28;20018;-65
2024/01/25 02:30:31;;;;;;;69.38;50.70;;;6.10;99.90;;;;;;5035433;28;20030;-66
2024/01/25 02:32:57;;;;;;;87.30;61.47;;;6.00;99.90;;;;;;5035404;28;20030;-67
2024/01/25 02:35:22;;;;;;;90.03;61.90;;;5.90;99.90;;;;;;5035240;28;20037;-66
2024/01/25 02:37:50;;;;;;;68.85;49.25;;;5.80;99.90;;;;;;5035294;28;20060;-66
2024/01/25 02:40:16;;;;;;;60.03;44.17;;;5.80;99.90;;;;;;5035263;28;20026;-63
2024/01/25 02:42:42;;;;;;;75.65;57.22;;;5.80;99.90;;;;;;5035214;28;20502;-62
2024/01/25 02:45:08;;;;;;;66.72;49.42;;;5.80;99.90;;;;;;5034369;28;20056;-66
2024/01/25 02:47:33;;;;;;;79.70;56.30;;;5.70;99.90;;;;;;5035035;28;20468;-64
2024/01/25 02:49:59;;;;;;;76.82;56.88;;;5.60;99.90;;;;;;5035101;28;20096;-65
2024/01/25 02:52:25;;;;;;;73.72;54.92;;;5.40;99.90;;;;;;5033871;28;20021;-66
2024/01/25 02:54:50;;;;;;;75.85;55.05;;;5.30;99.90;;;;;;5034969;28;20032;-63
2024/01/25 02:57:16;;;;;;;72.75;52.15;;;5.30;99.90;;;;;;5033685;28;20495;-66
2024/01/25 02:59:42;;;;;;;74.05;53.80;;;5.30;99.90;;;;;;5034987;28;20021;-62
2024/01/25 03:02:08;;;;;;;69.38;51.22;;;5.40;99.90;;;;;;5034792;28;20092;-62
2024/01/25 03:04:33;;;;;;;65.65;49.55;;;5.40;99.90;;;;;;5034660;28;20049;-63
2024/01/25 03:06:59;;;;;;;59.33;45.45;;;5.40;99.90;;;;;;5034808;28;20132;-65
2024/01/25 03:09:25;;;;;;;60.95;44.15;;;5.30;99.90;;;;;;5034765;28;20025;-64
2024/01/25 03:11:50;;;;;;;46.25;37.85;;;5.30;99.90;;;;;;5033353;28;20057;-66
2024/01/25 03:14:16;;;;;;;50.63;37.08;;;5.40;99.90;;;;;;5034606;28;20029;-64
2024/01/25 03:16:42;;;;;;;46.15;34.85;;;5.50;99.90;;;;;;5034614;28;20463;-64
2024/01/25 03:19:09;;;;;;;43.65;33.55;;;5.60;99.90;;;;;;5034371;28;20018;-63
2024/01/25 03:21:35;;;;;;;41.22;32.03;;;5.60;99.90;;;;;;5034566;28;20148;-65
2024/01/25 03:24:01;;;;;;;37.17;28.95;;;5.70;99.90;;;;;;5034545;28;20049;-63
2024/01/25 03:26:30;;;;;;;44.80;35.83;;;5.80;99.90;;;;;;5049750;28;20018;-66
2024/01/25 03:28:55;;;;;;;42.13;33.40;;;5.70;99.90;;;;;;5034414;28;20041;-65
2024/01/25 03:31:21;;;;;;;36.92;28.85;;;5.70;99.90;;;;;;5034421;28;20022;-67
2024/01/25 03:33:47;;;;;;;39.78;29.73;;;5.70;99.90;;;;;;5034031;28;20025;-65
2024/01/25 03:36:15;;;;;;;41.33;31.33;;;5.70;99.90;;;;;;5034389;28;20026;-66
2024/01/25 03:38:41;;;;;;;36.67;28.98;;;5.80;99.90;;;;;;5034120;28;20030;-66
2024/01/25 03:41:07;;;;;;;49.58;39.00;;;5.80;99.90;;;;;;5034111;28;20053;-66
2024/01/25 03:43:33;;;;;;;41.47;31.42;;;5.70;99.90;;;;;;5034183;28;20045;-67
2024/01/25 03:45:59;;;;;;;60.20;43.40;;;5.60;99.90;;;;;;5034152;28;20380;-66
2024/01/25 03:48:24;;;;;;;45.05;34.80;;;5.60;99.90;;;;;;5033795;28;20103;-66
2024/01/25 03:50:50;;;;;;;39.65;30.77;;;5.60;99.90;;;;;;5034142;28;20021;-64
2024/01/25 03:53:16;;;;;;;51.20;38.42;;;5.70;99.90;;;;;;5034039;28;20030;-65
2024/01/25 03:55:41;;;;;;;53.05;38.97;;;5.70;99.90;;;;;;5033881;28;20492;-65
2024/01/25 03:58:07;;;;;;;72.55;51.55;;;5.70;99.90;;;;;;5033608;28;20060;-67
2024/01/25 04:00:33;;;;;;;56.47;42.78;;;5.80;99.90;;;;;;5034159;28;20427;-66
2024/01/25 04:02:59;;;;;;;45.13;34.60;;;5.70;99.90;;;;;;5033481;28;20025;-64
2024/01/25 04:05:26;;;;;;;51.03;38.40;;;5.70;99.90;;;;;;5033490;28;20041;-64
2024/01/25 04:07:52;;;;;;;59.75;43.80;;;5.80;99.90;;;;;;5033754;28;20026;-64
2024/01/25 04:10:18;;;;;;;65.43;47.88;;;5.90;99.90;;;;;;5033723;28;20063;-64
2024/01/25 04:12:43;;;;;;;55.33;43.55;;;5.70;99.90;;;;;;5033461;28;20487;-64
2024/01/25 04:15:09;;;;;;;64.60;46.42;;;5.50;99.90;;;;;;5032347;28;20022;-66
2024/01/25 04:17:35;;;;;;;50.08;36.63;;;5.40;99.90;;;;;;5033372;28;20065;-64
2024/01/25 04:20:01;;;;;;;48.05;38.00;;;5.40;99.90;;;;;;5033449;28;20472;-64
2024/01/25 04:22:26;;;;;;;48.90;36.83;;;5.50;99.90;;;;;;5033478;28;20013;-65
2024/01/25 04:24:52;;;;;;;45.17;34.72;;;5.40;99.90;;;;;;5033453;28;20022;-64
2024/01/25 04:27:18;;;;;;;40.20;31.08;;;5.40;99.90;;;;;;5033399;28;20104;-65
2024/01/25 04:29:43;;;;;;;43.90;33.95;;;5.60;99.90;;;;;;5032121;28;20087;-65
2024/01/25 04:32:09;;;;;;;43.58;34.95;;;5.60;99.90;;;;;;5033257;28;20028;-65
2024/01/25 04:34:36;;;;;;;38.38;29.98;;;5.20;99.90;;;;;;5033411;28;20431;-65
2024/01/25 04:37:01;;;;;;;33.60;26.30;;;5.20;99.90;;;;;;5033137;28;20057;-62
2024/01/25 04:39:27;;;;;;;35.28;26.50;;;5.30;99.90;;;;;;5033666;28;20060;-63
2024/01/25 04:41:53;;;;;;;39.60;30.73;;;5.30;99.90;;;;;;5033316;28;20030;-64
2024/01/25 04:44:19;;;;;;;35.35;28.67;;;5.30;99.90;;;;;;5033224;28;20030;-64
2024/01/25 04:46:44;;;;;;;29.85;23.92;;;5.30;99.90;;;;;;5033071;28;20049;-64
2024/01/25 04:49:10;;;;;;;30.27;22.70;;;5.30;99.90;;;;;;5033169;28;20032;-64
2024/01/25 04:51:36;;;;;;;29.65;23.35;;;5.50;99.90;;;;;;5033070;28;20499;-67
2024/01/25 04:54:02;;;;;;;27.52;22.80;;;5.60;99.90;;;;;;5033188;28;20021;-66
2024/01/25 04:56:28;;;;;;;28.90;23.30;;;5.60;99.90;;;;;;5033172;28;20361;-64
2024/01/25 04:58:54;;;;;;;26.75;20.45;;;5.60;99.90;;;;;;5033021;28;20037;-64
2024/01/25 05:01:20;;;;;;;27.35;20.48;;;5.60;99.90;;;;;;5032925;28;20357;-64
2024/01/25 05:03:45;;;;;;;28.55;20.98;;;5.70;99.90;;;;;;5032855;28;20133;-67
2024/01/25 05:06:11;;;;;;;35.47;26.60;;;5.70;99.90;;;;;;5031889;28;20075;-63
2024/01/25 05:08:37;;;;;;;35.83;28.95;;;5.60;99.90;;;;;;5035602;28;20368;-65
2024/01/25 05:11:02;;;;;;;27.90;21.38;;;5.50;99.90;;;;;;5037077;28;20024;-65
2024/01/25 05:13:28;;;;;;;24.83;20.73;;;5.60;99.90;;;;;;5036834;28;20475;-65
2024/01/25 05:15:54;;;;;;;24.63;20.92;;;5.70;99.90;;;;;;5036657;28;20026;-63
2024/01/25 05:18:20;;;;;;;26.13;21.85;;;5.80;99.90;;;;;;5036836;28;20033;-62
2024/01/25 05:20:45;;;;;;;26.90;20.02;;;5.90;99.90;;;;;;5036767;28;20040;-66
2024/01/25 05:23:11;;;;;;;21.25;18.75;;;5.80;99.90;;;;;;5036686;28;20021;-63
2024/01/25 05:25:37;;;;;;;20.48;17.33;;;5.70;99.90;;;;;;5036780;28;20026;-66
2024/01/25 05:28:03;;;;;;;19.10;16.00;;;5.70;99.90;;;;;;5036730;28;20418;-63
2024/01/25 05:30:29;;;;;;;17.00;13.85;;;5.80;99.90;;;;;;5036368;28;20044;-65
2024/01/25 05:32:55;;;;;;;17.60;14.25;;;6.00;99.90;;;;;;5036626;28;20380;-64
2024/01/25 05:35:21;;;;;;;20.00;15.75;;;6.10;99.90;;;;;;5036589;28;20025;-63
2024/01/25 05:37:46;;;;;;;17.73;14.25;;;6.00;99.90;;;;;;5036456;28;20029;-66
2024/01/25 05:40:12;;;;;;;21.05;15.77;;;5.90;99.90;;;;;;5036353;28;20029;-64
2024/01/25 05:42:40;;;;;;;18.92;15.45;;;6.00;99.90;;;;;;5036609;28;20488;-63
2024/01/25 05:45:06;;;;;;;18.63;14.43;;;6.00;99.90;;;;;;5051516;28;20026;-63
2024/01/25 05:47:32;;;;;;;19.75;15.00;;;6.00;99.90;;;;;;5036317;28;20030;-63
2024/01/25 05:49:57;;;;;;;24.10;19.00;;;5.90;99.90;;;;;;5036221;28;20048;-66
2024/01/25 05:52:24;;;;;;;32.35;23.38;;;5.90;99.90;;;;;;5036223;28;20084;-66
2024/01/25 05:54:50;;;;;;;27.42;19.80;;;5.70;99.90;;;;;;5036108;28;20017;-64
2024/01/25 05:57:17;;;;;;;23.65;17.25;;;5.60;99.90;;;;;;5036202;28;20033;-66
2024/01/25 05:59:43;;;;;;;25.30;18.83;;;5.80;99.90;;;;;;5035822;28;20021;-63
2024/01/25 06:02:09;;;;;;;23.23;17.88;;;5.90;99.90;;;;;;5035946;28;20365;-65
2024/01/25 06:04:35;;;;;;;22.88;16.98;;;5.90;99.90;;;;;;5035961;28;20108;-62
2024/01/25 06:07:01;;;;;;;22.25;18.38;;;6.00;99.90;;;;;;5034718;28;20075;-65
2024/01/25 06:09:27;;;;;;;35.10;26.80;;;6.00;99.90;;;;;;5035808;28;20112;-66
2024/01/25 06:11:53;;;;;;;38.10;29.83;;;6.00;99.90;;;;;;5036003;28;20028;-64
2024/01/25 06:14:19;;;;;;;28.45;22.60;;;5.70;99.90;;;;;;5035427;28;20037;-64
2024/01/25 06:16:44;;;;;;;29.15;21.83;;;5.60;99.90;;;;;;5035549;28;20068;-65
2024/01/25 06:19:10;;;;;;;27.35;20.45;;;5.80;99.90;;;;;;5034267;28;20071;-66
2024/01/25 06:21:37;;;;;;;23.63;18.88;;;5.90;99.90;;;;;;5035767;28;20072;-64
2024/01/25 06:24:06;;;;;;;26.20;18.70;;;6.00;99.90;;;;;;5035569;28;20022;-65
2024/01/25 06:26:33;;;;;;;24.60;18.42;;;6.10;99.90;;;;;;5033667;28;20024;-63
2024/01/25 06:28:59;;;;;;;20.33;16.73;;;6.00;99.90;;;;;;5035272;28;20051;-64
2024/01/25 06:31:25;;;;;;;19.95;15.80;;;6.10;99.90;;;;;;5035446;28;20029;-64
2024/01/25 06:33:52;;;;;;;32.20;23.42;;;6.20;99.90;;;;;;5035281;28;20100;-63
2024/01/25 06:36:19;;;;;;;36.92;28.08;;;6.20;99.90;;;;;;5035439;28;20026;-66
2024/01/25 06:38:44;;;;;;;47.13;35.97;;;6.10;99.90;;;;;;5035225;28;20029;-62
2024/01/25 06:41:10;;;;;;;42.80;33.83;;;6.10;99.90;;;;;;5035201;28;20021;-62
2024/01/25 06:43:36;;;;;;;41.50;32.75;;;6.20;99.90;;;;;;5035149;28;20088;-66
2024/01/25 06:46:02;;;;;;;52.33;37.22;;;6.20;99.90;;;;;;5035265;28;20545;-63
2024/01/25 06:48:27;;;;;;;38.55;31.40;;;6.20;99.90;;;;;;5035107;28;20052;-63
2024/01/25 06:50:53;;;;;;;47.20;36.42;;;6.10;99.90;;;;;;5035243;28;20021;-64
2024/01/25 06:53:20;;;;;;;41.85;32.30;;;6.00;99.90;;;;;;5035081;28;20484;-64
2024/01/25 06:55:46;;;;;;;37.05;28.70;;;6.10;99.90;;;;;;5034948;28;20451;-64
2024/01/25 06:58:13;;;;;;;34.65;26.15;;;6.20;99.90;;;;;;5034845;28;20052;-65
2024/01/25 07:00:39;;;;;;;45.47;34.05;;;6.30;99.90;;;;;;5035057;28;20025;-63
2024/01/25 07:03:05;;;;;;;55.60;41.63;;;6.30;99.90;;;;;;5034817;28;20028;-63
2024/01/25 07:05:33;;;;;;;54.28;41.08;;;6.30;99.90;;;;;;5034997;28;20102;-65
2024/01/25 07:07:59;;;;;;;49.13;36.72;;;6.20;99.90;;;;;;5035026;28;20086;-66
2024/01/25 07:10:26;;;;;;;41.80;33.30;;;6.30;99.90;;;;;;5034817;28;20017;-64
2024/01/25 07:12:53;;;;;;;36.72;29.27;;;6.40;99.90;;;;;;5034639;28;20071;-66
2024/01/25 07:15:19;;;;;;;117.13;86.40;;;6.40;99.90;;;;;;5034614;28;20032;-68
2024/01/25 07:17:45;;;;;;;66.75;52.15;;;6.50;99.90;;;;;;5034833;28;20029;-65
2024/01/25 07:20:11;;;;;;;94.75;70.38;;;6.40;99.90;;;;;;5037083;28;20104;-66
2024/01/25 07:22:37;;;;;;;97.95;69.82;;;6.50;99.90;;;;;;5044825;28;20021;-62
2024/01/25 07:25:03;;;;;;;71.50;55.08;;;6.50;99.90;;;;;;5045470;28;20060;-66
2024/01/25 07:27:29;;;;;;;56.42;42.78;;;6.50;99.90;;;;;;5041575;28;20438;-68
2024/01/25 07:29:55;;;;;;;45.72;36.70;;;6.50;99.90;;;;;;5043288;28;20028;-66
2024/01/25 07:32:21;;;;;;;43.92;34.50;;;6.50;99.90;;;;;;5043520;28;20033;-66
2024/01/25 07:34:47;;;;;;;43.47;34.40;;;6.70;99.90;;;;;;5043057;28;20025;-65
2024/01/25 07:37:13;;;;;;;37.35;29.80;;;6.90;99.90;;;;;;5044344;28;20033;-65
2024/01/25 07:39:43;;;;;;;46.80;34.03;;;7.10;99.90;;;;;;5041772;28;20060;-64
2024/01/25 07:42:09;;;;;;;39.08;30.85;;;7.20;99.90;;;;;;5041228;28;20027;-64
2024/01/25 07:44:35;;;;;;;43.42;32.25;;;7.60;99.90;;;;;;5044627;28;20028;-64
2024/01/25 07:47:02;;;;;;;34.20;27.27;;;8.20;99.90;;;;;;5043222;28;20388;-66
2024/01/25 07:49:28;;;;;;;53.53;39.40;;;8.60;99.90;;;;;;5044861;28;20048;-63
2024/01/25 07:51:56;;;;;;;52.35;40.00;;;8.60;99.90;;;;;;5041349;28;20021;-64
2024/01/25 07:54:23;;;;;;;37.67;32.10;;;8.50;99.90;;;;;;5041399;28;20543;-64
2024/01/25 07:56:49;;;;;;;40.97;32.67;;;8.70;99.90;;;;;;5041793;28;20493;-65
2024/01/25 07:59:15;;;;;;;36.00;31.02;;;8.60;99.80;;;;;;5043808;28;20108;-63
2024/01/25 08:01:42;;;;;;;98.30;68.70;;;8.30;99.90;;;;;;5041023;28;20078;-62
2024/01/25 08:04:09;;;;;;;81.93;57.95;;;8.20;99.90;;;;;;5038288;28;20464;-63
2024/01/25 08:06:35;;;;;;;101.68;74.97;;;8.40;99.90;;;;;;5042113;28;20024;-66
2024/01/25 08:09:02;;;;;;;117.32;86.50;;;10.80;94.70;;;;;;5039746;28;20041;-65
2024/01/25 08:11:28;;;;;;;91.50;69.82;;;13.20;70.60;;;;;;5038557;28;20499;-62
2024/01/25 08:13:54;;;;;;;79.28;62.83;;;14.40;62.00;;;;;;5042361;28;20019;-66
2024/01/25 08:16:20;;;;;;;70.38;53.50;;;13.30;58.40;;;;;;5043138;28;20026;-63
2024/01/25 08:18:47;;;;;;;74.07;57.60;;;13.70;59.80;;;;;;5041338;28;20438;-67
2024/01/25 08:21:13;;;;;;;65.57;53.90;;;15.50;55.70;;;;;;5040716;28;20039;-65
2024/01/25 08:23:40;;;;;;;91.57;73.20;;;16.80;51.80;;;;;;5043010;28;20096;-67
2024/01/25 08:26:09;;;;;;;94.65;75.55;;;18.10;45.70;;;;;;5042821;28;20021;-66
2024/01/25 08:28:46;;;;;;;86.05;69.72;;;18.20;45.30;;;;;;5039630;28;20025;-67
2024/01/25 08:31:12;;;;;;;71.15;60.55;;;18.70;43.30;;;;;;5040522;28;20027;-63
2024/01/25 08:33:50;;;;;;;76.43;60.90;;;19.00;42.70;;;;;;5040367;28;20493;-63
2024/01/25 08:36:19;;;;;;;83.22;66.28;;;19.90;41.30;;;;;;5040400;28;20075;-64
2024/01/25 08:38:46;;;;;;;91.03;75.88;;;20.30;40.00;;;;;;5042114;28;20058;-65
2024/01/25 08:41:15;;;;;;;90.78;78.43;;;20.40;40.10;;;;;;5043713;28;20017;-64
2024/01/25 08:43:42;;;;;;;82.57;73.05;;;20.20;40.50;;;;;;5040458;28;20364;-64
2024/01/25 08:46:09;;;;;;;76.03;67.40;;;20.30;39.70;;;;;;5040523;28;20120;-65
2024/01/25 08:48:35;;;;;;;83.70;70.82;;;18.80;40.80;;;;;;5042219;28;20031;-64
2024/01/25 08:51:01;;;;;;;85.35;71.25;;;17.50;43.10;;;;;;5040909;28;20471;-68
2024/01/25 08:53:27;;;;;;;71.55;63.30;;;16.60;45.30;;;;;;5040779;28;20109;-64
2024/01/25 08:55:55;;;;;;;67.10;59.70;;;15.90;46.80;;;;;;5039416;28;20483;-64
2024/01/25 08:58:21;;;;;;;63.88;57.08;;;15.30;48.60;;;;;;5041096;28;20127;-64
2024/01/25 09:00:47;;;;;;;62.28;55.42;;;15.10;50.00;;;;;;5042496;28;20043;-64
2024/01/25 09:03:14;;;;;;;71.13;62.30;;;15.30;50.90;;;;;;5039727;28;20487;-66
2024/01/25 09:05:44;;;;;;;98.18;80.47;;;15.10;50.10;;;;;;5042559;28;20115;-64
2024/01/25 09:08:12;;;;;;;93.90;80.25;;;15.30;51.50;;;;;;5046935;28;20048;-64
2024/01/25 09:10:38;;;;;;;76.40;68.05;;;16.20;52.50;;;;;;5052830;28;20048;-67
2024/01/25 09:13:04;;;;;;;63.10;56.20;;;17.20;49.70;;;;;;5052156;28;20036;-65
2024/01/25 09:15:30;;;;;;;55.38;49.33;;;17.80;46.40;;;;;;5044855;28;20026;-64
2024/01/25 09:17:55;;;;;;;45.85;41.13;;;18.00;46.00;;;;;;5040165;28;20499;-64
2024/01/25 09:20:21;;;;;;;37.08;33.20;;;18.20;46.10;;;;;;5043094;28;20033;-65
2024/01/25 09:22:47;;;;;;;30.10;27.00;;;18.50;44.90;;;;;;5041296;28;20039;-66
2024/01/25 09:25:13;;;;;;;27.52;24.73;;;18.60;44.00;;;;;;5042239;28;20029;-67
2024/01/25 09:27:38;;;;;;;24.52;22.08;;;18.30;43.60;;;;;;5042653;28;20515;-67
2024/01/25 09:30:05;;;;;;;25.48;22.98;;;17.80;44.40;;;;;;5040188;28;20021;-67
2024/01/25 09:32:31;;;;;;;25.33;22.73;;;17.00;45.90;;;;;;5042688;28;20163;-67
2024/01/25 09:34:57;;;;;;;27.45;24.45;;;16.40;47.60;;;;;;5050703;28;20487;-66
2024/01/25 09:37:24;;;;;;;27.48;24.67;;;16.00;48.20;;;;;;5052320;28;20074;-64
2024/01/25 09:39:51;;;;;;;28.27;25.30;;;15.70;49.70;;;;;;5051808;28;20029;-64
2024/01/25 09:42:18;;;;;;;33.70;30.10;;;15.40;50.70;;;;;;5051792;28;20021;-67
2024/01/25 09:44:44;;;;;;;31.48;28.05;;;15.20;51.50;;;;;;5049942;28;20498;-67
2024/01/25 09:47:11;;;;;;;24.40;21.80;;;15.00;52.90;;;;;;5050730;28;20105;-66
2024/01/25 09:49:37;;;;;;;19.48;17.38;;;14.80;52.80;;;;;;5052665;28;20387;-66
2024/01/25 09:52:03;;;;;;;19.40;17.38;;;14.70;53.30;;;;;;5052881;28;20071;-64
2024/01/25 09:54:35;;;;;;;20.05;17.98;;;14.60;54.20;;;;;;5053926;28;20537;-65
2024/01/25 09:57:22;;;;;;;18.23;16.25;;;14.50;55.40;;;;;;5056001;28;20104;-65
2024/01/25 09:59:50;;;;;;;15.18;13.57;;;14.40;55.30;;;;;;5055758;28;20546;-67
2024/01/25 10:02:16;;;;;;;28.63;24.40;;;14.40;55.20;;;;;;5055977;28;20061;-65
2024/01/25 10:04:41;;;;;;;28.50;23.42;;;14.40;55.50;;;;;;5055008;28;20146;-67
2024/01/25 10:07:07;;;;;;;22.65;19.90;;;14.20;59.00;;;;;;5055345;28;20032;-65
2024/01/25 10:09:41;;;;;;;19.60;17.50;;;14.20;57.80;;;;;;5054842;28;20028;-63
2024/01/25 10:12:06;;;;;;;;;;;14.10;59.10;;;;;;5056161;28;20029;-66
2024/01/25 10:14:32;;;;;;;14.32;11.82;;;14.10;62.60;;;;;;5055665;28;20278;-65
2024/01/25 10:16:58;;;;;;;11.88;10.43;;;14.00;63.00;;;;;;5055749;28;20074;-64
2024/01/25 10:19:25;;;;;;;7.10;6.40;;;14.10;60.80;;;;;;5054897;28;20032;-67
2024/01/25 10:21:51;;;;;;;7.90;7.07;;;14.10;59.00;;;;;;5055337;28;20071;-68
2024/01/25 10:24:17;;;;;;;7.47;6.78;;;13.90;58.90;;;;;;5055405;28;20021;-63
2024/01/25 10:26:42;;;;;;;7.75;6.95;;;14.00;60.00;;;;;;5055442;28;20017;-65
2024/01/25 10:29:09;;;;;;;6.90;6.20;;;14.20;62.90;;;;;;5055846;28;20103;-66
2024/01/25 10:31:40;;;;;;;6.40;5.80;;;14.70;64.80;;;;;;5055258;28;20352;-65
2024/01/25 10:34:11;;;;;;;5.65;5.05;;;15.20;58.30;;;;;;5054851;28;20025;-64
2024/01/25 10:36:38;;;;;;;5.57;4.80;;;15.40;55.20;;;;;;5052628;28;20059;-67
2024/01/25 10:39:04;;;;;;;5.00;4.57;;;15.70;55.00;;;;;;5054950;28;20471;-64
2024/01/25 10:41:32;;;;;;;5.47;4.97;;;16.10;53.60;;;;;;5054361;28;20025;-67
2024/01/25 10:43:58;;;;;;;5.50;5.00;;;16.50;51.40;;;;;;5054337;28;20026;-64
2024/01/25 10:46:25;;;;;;;7.25;5.70;;;17.00;50.20;;;;;;5053537;28;20375;-68
2024/01/25 10:48:51;;;;;;;6.07;5.50;;;17.20;48.30;;;;;;5054718;28;20104;-67
2024/01/25 10:51:20;;;;;;;6.82;6.13;;;17.00;48.40;;;;;;5054880;28;20051;-67
2024/01/25 10:53:47;;;;;;;7.38;6.20;;;16.80;49.90;;;;;;5054385;28;20036;-64
2024/01/25 10:56:13;;;;;;;7.10;6.40;;;17.00;48.60;;;;;;5053365;28;20100;-64
2024/01/25 10:58:41;;;;;;;7.82;6.78;;;17.30;48.60;;;;;;5054483;28;20029;-65
2024/01/25 11:01:10;;;;;;;5.20;4.80;;;17.60;46.90;;;;;;5043972;28;20090;-67
2024/01/25 11:03:36;;;;;;;5.95;5.35;;;17.60;46.30;;;;;;5042431;28;20041;-65
2024/01/25 11:06:10;;;;;;;4.95;4.45;;;17.70;47.80;;;;;;5044789;28;20025;-65
2024/01/25 11:08:39;;;;;;;4.55;3.83;;;17.90;44.90;;;;;;5043770;28;20025;-64
2024/01/25 11:11:10;;;;;;;4.70;4.30;;;17.90;45.50;;;;;;5042481;28;20049;-68
2024/01/25 11:13:42;;;;;;;4.35;4.05;;;17.90;46.10;;;;;;5040768;28;20364;-64
2024/01/25 11:16:16;;;;;;;4.63;4.22;;;18.10;46.40;;;;;;5041065;28;20017;-64
2024/01/25 11:18:52;;;;;;;4.60;4.20;;;18.20;45.50;;;;;;5041051;28;20033;-66
2024/01/25 11:21:41;;;;;;;4.63;4.20;;;18.30;45.20;;;;;;5041674;28;20035;-65
2024/01/25 11:24:14;;;;;;;4.05;3.75;;;18.60;43.80;;;;;;5043696;28;20103;-64
2024/01/25 11:26:43;;;;;;;4.50;4.10;;;18.90;44.00;;;;;;5042896;28;20256;-66
2024/01/25 11:29:08;;;;;;;3.90;3.60;;;19.10;43.70;;;;;;5042259;28;20032;-66
2024/01/25 11:31:35;;;;;;;4.30;3.90;;;19.20;42.80;;;;;;5042798;28;20013;-66
2024/01/25 11:34:01;;;;;;;3.80;3.42;;;19.30;41.80;;;;;;5041137;28;20021;-67
2024/01/25 11:36:27;;;;;;;5.60;4.70;;;19.30;42.00;;;;;;5038523;28;20025;-64
2024/01/25 11:38:53;;;;;;;5.30;4.80;;;19.30;41.90;;;;;;5033823;28;20499;-68
2024/01/25 11:41:20;;;;;;;5.00;4.60;;;19.30;43.20;;;;;;5034317;28;20022;-64
2024/01/25 11:43:47;;;;;;;4.50;4.10;;;19.40;41.80;;;;;;5043665;28;20033;-67
2024/01/25 11:46:13;;;;;;;5.78;4.60;;;19.40;41.60;;;;;;5054142;28;20471;-67
2024/01/25 11:48:41;;;;;;;5.00;4.60;;;19.40;42.50;;;;;;5054013;28;20020;-67
2024/01/25 11:51:09;;;;;;;4.57;4.18;;;19.40;41.20;;;;;;5053967;28;20507;-67
2024/01/25 11:53:34;;;;;;;5.65;4.45;;;19.50;41.00;;;;;;5053070;28;20060;-68
2024/01/25 11:56:02;;;;;;;5.63;5.13;;;19.40;40.70;;;;;;5052609;28;20068;-67
2024/01/25 11:58:28;;;;;;;6.07;5.38;;;19.30;41.10;;;;;;5053732;28;20055;-64
2024/01/25 12:00:54;;;;;;;5.40;5.00;;;19.40;41.30;;;;;;5053642;28;20104;-67
2024/01/25 12:03:20;;;;;;;6.53;5.93;;;19.70;41.10;;;;;;5053275;28;20116;-65
2024/01/25 12:05:46;;;;;;;7.93;7.13;;;19.90;40.60;;;;;;5053654;28;20036;-66
2024/01/25 12:08:13;;;;;;;9.57;8.57;;;20.00;39.90;;;;;;5053706;28;20029;-66
2024/01/25 12:10:39;;;;;;;10.25;9.05;;;20.30;39.60;;;;;;5051832;28;20025;-65
2024/01/25 12:13:09;;;;;;;9.93;9.02;;;20.30;39.50;;;;;;5053588;28;20025;-64
2024/01/25 12:15:35;;;;;;;5.53;5.03;;;20.20;40.30;;;;;;5053254;28;20075;-64
2024/01/25 12:18:04;;;;;;;2.45;2.25;;;20.00;39.00;;;;;;5051904;28;20032;-67
2024/01/25 12:20:30;;;;;;;1.45;1.27;;;19.90;39.10;;;;;;5052862;28;20078;-65
2024/01/25 12:22:58;;;;;;;1.63;1.27;;;20.00;37.90;;;;;;5052198;28;20060;-65
2024/01/25 12:25:24;;;;;;;1.40;1.30;;;20.10;37.60;;;;;;5052164;28;20025;-65
2024/01/25 12:27:50;;;;;;;1.88;1.20;;;20.00;37.90;;;;;;5052154;28;20031;-64
2024/01/25 12:30:16;;;;;;;1.73;1.50;;;19.90;37.80;;;;;;5052585;28;20095;-66
2024/01/25 12:32:41;;;;;;;2.50;2.22;;;19.80;38.80;;;;;;5051383;28;20029;-64